Terminal Aerodrome Forecast
Issued by NWS Twin Cities, MN

Home | Current Version | Previous Version | Graphics & Text | Print | Product List | Glossary On
Versions: 1 2 3 4 5 6 7 8 9 10 11 12 13 14 15 16 17 18 19 20 21 22 23 24 25 26 27 28
000
FTUS43 KMPX 190301 AAA
TAFMSP
TAF AMD
KMSP 190301Z 1903/2006 03004KT P6SM SKC
     FM191400 09006KT P6SM FEW250
     FM191800 12010KT P6SM SCT100 BKN250 PROB30 2002/2006 4SM -TSRA
      BKN050CB=

USA.gov is the U.S. government's official web portal to all federal, state and local government web resources and services.